Time;durP1;ratioP1;P1;durP2;ratioP2;P2;SDS_P1;SDS_P2;PMS_P1;PMS_P2;Temp;Humidity;BMP_temperature;BMP_pressure;BME280_temperature;BME280_humidity;BME280_pressure;Samples;Min_cycle;Max_cycle;Signal;HPM_P1;HPM_P2
2023/05/23 02:01:37;;;;;;;3.97;3.40;;;;;;;;;;4583362;28;20083;-73
2023/05/23 02:04:04;;;;;;;3.28;2.25;;;;;;;;;;4295169;33;20042;-73
2023/05/23 02:06:30;;;;;;;12.20;3.03;;;;;;;;;;4295673;33;20067;-72
2023/05/23 02:08:56;;;;;;;3.03;2.58;;;;;;;;;;4293404;33;20068;-73
2023/05/23 02:11:23;;;;;;;6.32;2.58;;;;;;;;;;4294235;33;20049;-72
2023/05/23 02:13:50;;;;;;;4.07;2.62;;;;;;;;;;4293381;33;20131;-73
2023/05/23 02:16:16;;;;;;;6.75;2.75;;;;;;;;;;4289985;33;20479;-72
2023/05/23 02:18:45;;;;;;;4.85;2.00;;;;;;;;;;4292649;33;20213;-73
2023/05/23 02:21:12;;;;;;;4.25;2.75;;;;;;;;;;4279453;33;20034;-73
2023/05/23 02:23:38;;;;;;;5.50;2.25;;;;;;;;;;4279665;33;20484;-73
2023/05/23 02:26:04;;;;;;;2.90;2.70;;;;;;;;;;4279111;33;20058;-72
2023/05/23 02:28:30;;;;;;;2.37;2.08;;;;;;;;;;4278103;33;20373;-73
2023/05/23 02:30:56;;;;;;;7.43;2.58;;;;;;;;;;4279401;33;20096;-73
2023/05/23 02:33:23;;;;;;;5.55;3.10;;;;;;;;;;4279445;33;20049;-73
2023/05/23 02:35:50;;;;;;;5.57;2.58;;;;;;;;;;4279266;33;20479;-73
2023/05/23 02:38:19;;;;;;;3.87;2.72;;;;;;;;;;4277577;33;20061;-73
2023/05/23 02:40:45;;;;;;;5.43;2.75;;;;;;;;;;4267932;33;20084;-73
2023/05/23 02:43:12;;;;;;;11.82;5.05;;;;;;;;;;4263680;33;20088;-71
2023/05/23 02:45:38;;;;;;;8.18;3.22;;;;;;;;;;4264129;33;20059;-73
2023/05/23 02:48:04;;;;;;;10.13;3.62;;;;;;;;;;4264965;33;20411;-72
2023/05/23 02:50:30;;;;;;;4.53;2.67;;;;;;;;;;4263386;33;20081;-72
2023/05/23 02:52:57;;;;;;;3.78;2.70;;;;;;;;;;4264959;33;20075;-72
2023/05/23 02:55:23;;;;;;;5.65;2.17;;;;;;;;;;4264845;33;20038;-72
2023/05/23 02:57:50;;;;;;;3.05;2.58;;;;;;;;;;4265434;33;20164;-72
2023/05/23 03:00:16;;;;;;;7.15;2.42;;;;;;;;;;4277898;33;20419;-72
2023/05/23 03:02:43;;;;;;;4.03;2.60;;;;;;;;;;4278157;33;20110;-72
2023/05/23 03:05:09;;;;;;;3.17;2.87;;;;;;;;;;4291646;33;20546;-74
2023/05/23 03:07:36;;;;;;;5.47;3.05;;;;;;;;;;4294478;33;20045;-72
2023/05/23 03:10:03;;;;;;;3.50;3.20;;;;;;;;;;4295401;33;20057;-72
2023/05/23 03:12:29;;;;;;;3.83;3.03;;;;;;;;;;4293737;33;20080;-72
2023/05/23 03:14:55;;;;;;;2.78;2.50;;;;;;;;;;4295827;33;20976;-73
2023/05/23 03:17:24;;;;;;;7.75;3.12;;;;;;;;;;4296212;33;20481;-74
2023/05/23 03:19:50;;;;;;;3.42;2.85;;;;;;;;;;4295836;33;20083;-73
2023/05/23 03:22:17;;;;;;;11.00;2.95;;;;;;;;;;4294083;33;20053;-71
2023/05/23 03:24:43;;;;;;;9.30;3.65;;;;;;;;;;4294520;33;20053;-73
2023/05/23 03:27:16;;;;;;;3.62;2.50;;;;;;;;;;4295508;33;20071;-72
2023/05/23 03:29:42;;;;;;;3.97;3.00;;;;;;;;;;4296486;33;20561;-74
2023/05/23 03:32:09;;;;;;;6.03;2.55;;;;;;;;;;4296841;33;20116;-70
2023/05/23 03:34:37;;;;;;;4.20;2.83;;;;;;;;;;4297710;33;20053;-73
2023/05/23 03:37:04;;;;;;;4.57;3.03;;;;;;;;;;4298357;33;20049;-72
2023/05/23 03:39:30;;;;;;;6.72;2.85;;;;;;;;;;4298322;33;20110;-73
2023/05/23 03:41:56;;;;;;;11.48;3.00;;;;;;;;;;4298381;33;20057;-73
2023/05/23 03:44:23;;;;;;;5.60;2.78;;;;;;;;;;4295523;33;20045;-71
2023/05/23 03:46:49;;;;;;;3.20;2.78;;;;;;;;;;4298015;33;20118;-73
2023/05/23 03:49:16;;;;;;;5.97;3.58;;;;;;;;;;4298101;33;20049;-73
2023/05/23 03:51:42;;;;;;;3.22;2.33;;;;;;;;;;4298395;33;20508;-72
2023/05/23 03:54:08;;;;;;;4.80;2.65;;;;;;;;;;4297986;33;20075;-73
2023/05/23 03:56:35;;;;;;;6.20;2.87;;;;;;;;;;4296346;33;20050;-73
2023/05/23 03:59:02;;;;;;;16.75;3.12;;;;;;;;;;4294801;33;20152;-73
2023/05/23 04:01:29;;;;;;;4.62;2.50;;;;;;;;;;4295835;33;20455;-74
2023/05/23 04:03:56;;;;;;;3.78;2.60;;;;;;;;;;4269304;33;20113;-74
2023/05/23 04:06:23;;;;;;;2.80;2.50;;;;;;;;;;4281287;33;20439;-72
2023/05/23 04:08:49;;;;;;;2.72;2.33;;;;;;;;;;4279499;33;20114;-73
2023/05/23 04:11:16;;;;;;;7.32;2.55;;;;;;;;;;4281252;33;20053;-73
2023/05/23 04:13:43;;;;;;;4.05;2.62;;;;;;;;;;4281269;33;20450;-72
2023/05/23 04:16:09;;;;;;;3.78;2.33;;;;;;;;;;4281204;33;20096;-73
2023/05/23 04:18:37;;;;;;;2.05;1.92;;;;;;;;;;4280343;33;20460;-70
2023/05/23 04:21:04;;;;;;;2.40;2.20;;;;;;;;;;4280378;33;20419;-72
2023/05/23 04:23:31;;;;;;;4.53;2.95;;;;;;;;;;4280426;33;20422;-72
2023/05/23 04:25:58;;;;;;;6.00;2.28;;;;;;;;;;4281058;33;20053;-74
2023/05/23 04:28:25;;;;;;;4.07;2.15;;;;;;;;;;4280974;33;20067;-72
2023/05/23 04:30:52;;;;;;;6.05;2.95;;;;;;;;;;4267345;33;20062;-73
2023/05/23 04:33:19;;;;;;;7.93;2.42;;;;;;;;;;4281187;33;20541;-73
2023/05/23 04:35:45;;;;;;;6.80;2.80;;;;;;;;;;4280865;33;20049;-73
2023/05/23 04:38:12;;;;;;;3.35;2.60;;;;;;;;;;4281101;33;20071;-74
2023/05/23 04:40:40;;;;;;;6.93;2.55;;;;;;;;;;4276641;33;20083;-71
2023/05/23 04:43:09;;;;;;;2.67;2.45;;;;;;;;;;4280858;33;20956;-73
2023/05/23 04:45:40;;;;;;;3.10;2.50;;;;;;;;;;4280652;33;20057;-72
2023/05/23 04:48:11;;;;;;;4.05;3.00;;;;;;;;;;4266263;33;20068;-73
2023/05/23 04:50:39;;;;;;;4.93;3.12;;;;;;;;;;4278514;33;20055;-70
2023/05/23 04:53:05;;;;;;;5.15;2.30;;;;;;;;;;4280225;33;20041;-72
2023/05/23 04:55:32;;;;;;;3.53;2.72;;;;;;;;;;4264787;33;20480;-73
2023/05/23 04:57:59;;;;;;;18.87;2.67;;;;;;;;;;4266195;33;20030;-73
2023/05/23 05:00:25;;;;;;;6.53;3.83;;;;;;;;;;4260639;33;20057;-71
2023/05/23 05:02:52;;;;;;;4.10;2.47;;;;;;;;;;4250023;33;20054;-72
2023/05/23 05:05:19;;;;;;;2.65;2.45;;;;;;;;;;4239714;33;20831;-73
2023/05/23 05:07:46;;;;;;;4.72;2.30;;;;;;;;;;4237863;33;20064;-73
2023/05/23 05:10:15;;;;;;;5.18;2.28;;;;;;;;;;4237879;33;20059;-74
2023/05/23 05:12:48;;;;;;;8.48;2.90;;;;;;;;;;4236338;33;20050;-72
2023/05/23 05:15:16;;;;;;;18.75;2.67;;;;;;;;;;4228398;33;20390;-74
2023/05/23 05:17:44;;;;;;;7.57;3.20;;;;;;;;;;4237883;33;20061;-73
2023/05/23 05:20:11;;;;;;;5.68;2.60;;;;;;;;;;4263535;33;20046;-74
2023/05/23 05:22:41;;;;;;;5.28;2.47;;;;;;;;;;4264467;33;20206;-71
2023/05/23 05:25:09;;;;;;;5.87;2.65;;;;;;;;;;4253066;33;20116;-72
2023/05/23 05:27:36;;;;;;;6.28;2.70;;;;;;;;;;4251888;33;20031;-73
2023/05/23 05:30:07;;;;;;;14.02;2.62;;;;;;;;;;4237499;33;20501;-73
2023/05/23 05:32:35;;;;;;;5.00;2.70;;;;;;;;;;4235122;33;20404;-73
2023/05/23 05:35:02;;;;;;;18.55;3.22;;;;;;;;;;4237852;33;20054;-74
2023/05/23 05:37:29;;;;;;;12.48;3.03;;;;;;;;;;4237919;33;20026;-74
2023/05/23 05:39:55;;;;;;;5.90;2.22;;;;;;;;;;4241621;33;20076;-73
2023/05/23 05:42:21;;;;;;;7.53;2.72;;;;;;;;;;4248335;33;20038;-73
2023/05/23 05:44:48;;;;;;;5.30;2.30;;;;;;;;;;4276759;33;20053;-73
2023/05/23 05:47:15;;;;;;;3.05;2.25;;;;;;;;;;4278913;33;20485;-73
2023/05/23 05:49:41;;;;;;;9.88;2.78;;;;;;;;;;4279878;33;20052;-73
2023/05/23 05:52:09;;;;;;;8.43;3.47;;;;;;;;;;4279947;33;20068;-74
2023/05/23 05:54:36;;;;;;;5.32;3.35;;;;;;;;;;4276861;33;20063;-73
2023/05/23 05:57:02;;;;;;;6.85;2.72;;;;;;;;;;4280154;33;20203;-73
2023/05/23 05:59:29;;;;;;;11.27;2.58;;;;;;;;;;4280017;33;20053;-73
2023/05/23 06:01:55;;;;;;;4.30;2.20;;;;;;;;;;4258299;33;20042;-74
2023/05/23 06:04:21;;;;;;;3.78;2.83;;;;;;;;;;4244731;33;20046;-74
2023/05/23 06:06:49;;;;;;;9.38;1.83;;;;;;;;;;4264301;33;20068;-74
2023/05/23 06:09:15;;;;;;;11.07;2.42;;;;;;;;;;4254626;33;20058;-75
2023/05/23 06:11:42;;;;;;;4.03;2.20;;;;;;;;;;4237097;33;20047;-74
2023/05/23 06:14:09;;;;;;;3.47;1.73;;;;;;;;;;4237506;33;20408;-75
2023/05/23 06:16:35;;;;;;;4.62;2.15;;;;;;;;;;4237461;33;20039;-74
2023/05/23 06:19:02;;;;;;;5.65;2.97;;;;;;;;;;4235410;33;20471;-75
2023/05/23 06:21:28;;;;;;;7.37;2.10;;;;;;;;;;4243648;33;20064;-74
2023/05/23 06:23:54;;;;;;;2.47;2.20;;;;;;;;;;4251243;33;20063;-74
2023/05/23 06:26:21;;;;;;;3.60;2.55;;;;;;;;;;4251454;33;20069;-74
2023/05/23 06:28:47;;;;;;;6.05;1.90;;;;;;;;;;4240646;33;20079;-74
2023/05/23 06:31:13;;;;;;;7.37;2.47;;;;;;;;;;4250246;33;20925;-73
2023/05/23 06:33:41;;;;;;;3.25;1.77;;;;;;;;;;4250845;33;20050;-74
2023/05/23 06:36:09;;;;;;;5.65;2.20;;;;;;;;;;4276949;33;20229;-74
2023/05/23 06:38:35;;;;;;;3.47;1.85;;;;;;;;;;4279013;33;20119;-73
2023/05/23 06:41:02;;;;;;;6.20;2.05;;;;;;;;;;4278942;33;20064;-73
2023/05/23 06:43:29;;;;;;;2.40;2.15;;;;;;;;;;4277189;33;20473;-73
2023/05/23 06:45:59;;;;;;;2.45;2.03;;;;;;;;;;4277714;33;20041;-73
2023/05/23 06:48:27;;;;;;;6.18;1.80;;;;;;;;;;4279313;33;20439;-73
2023/05/23 06:50:54;;;;;;;3.03;2.28;;;;;;;;;;4279335;33;20026;-74
2023/05/23 06:53:20;;;;;;;2.33;1.87;;;;;;;;;;4276707;33;20063;-71
2023/05/23 06:55:47;;;;;;;2.47;1.85;;;;;;;;;;4278685;33;20061;-73
2023/05/23 06:58:14;;;;;;;7.85;2.33;;;;;;;;;;4278231;33;20071;-73
2023/05/23 07:00:40;;;;;;;9.00;1.58;;;;;;;;;;4278793;33;20589;-73
2023/05/23 07:03:08;;;;;;;8.18;1.55;;;;;;;;;;4277931;33;20046;-72
2023/05/23 07:05:35;;;;;;;3.58;2.08;;;;;;;;;;4265697;33;20034;-71
2023/05/23 07:08:02;;;;;;;1.83;1.70;;;;;;;;;;4253047;33;20439;-72
2023/05/23 07:10:28;;;;;;;1.75;1.60;;;;;;;;;;4252302;33;20068;-72
2023/05/23 07:12:57;;;;;;;4.12;1.62;;;;;;;;;;4252803;33;20061;-72
2023/05/23 07:15:24;;;;;;;12.37;1.98;;;;;;;;;;4252601;33;20034;-72
2023/05/23 07:17:52;;;;;;;8.00;2.42;;;;;;;;;;4252397;33;20472;-72
2023/05/23 07:20:19;;;;;;;2.33;1.80;;;;;;;;;;4253271;33;20520;-72
2023/05/23 07:22:46;;;;;;;3.47;2.30;;;;;;;;;;4267419;33;20108;-72
2023/05/23 07:25:14;;;;;;;10.80;1.77;;;;;;;;;;4278655;33;20045;-72
2023/05/23 07:27:41;;;;;;;2.87;1.85;;;;;;;;;;4279661;33;20049;-72
2023/05/23 07:30:08;;;;;;;3.67;2.97;;;;;;;;;;4278099;33;20067;-71
2023/05/23 07:32:36;;;;;;;4.82;1.73;;;;;;;;;;4274857;33;20600;-71
2023/05/23 07:35:02;;;;;;;4.97;2.20;;;;;;;;;;4258394;33;20398;-71
2023/05/23 07:37:28;;;;;;;7.55;2.10;;;;;;;;;;4244869;33;20046;-72
2023/05/23 07:39:55;;;;;;;6.70;1.70;;;;;;;;;;4236601;33;20641;-71
2023/05/23 07:42:21;;;;;;;8.70;1.83;;;;;;;;;;4238702;33;20042;-74
2023/05/23 07:44:48;;;;;;;7.12;1.75;;;;;;;;;;4239255;33;20423;-72
2023/05/23 07:47:14;;;;;;;4.75;1.77;;;;;;;;;;4238871;33;20102;-70
2023/05/23 07:49:40;;;;;;;2.00;1.77;;;;;;;;;;4238882;33;20069;-70
2023/05/23 07:52:08;;;;;;;3.00;2.10;;;;;;;;;;4238772;33;20039;-72
2023/05/23 07:54:35;;;;;;;1.98;1.58;;;;;;;;;;4239940;33;20259;-72
2023/05/23 07:57:01;;;;;;;7.10;1.90;;;;;;;;;;4239150;33;20177;-71
2023/05/23 07:59:28;;;;;;;6.53;2.28;;;;;;;;;;4239139;33;20038;-72
2023/05/23 08:01:55;;;;;;;4.20;2.15;;;;;;;;;;4237292;33;20117;-70
2023/05/23 08:04:22;;;;;;;4.12;2.70;;;;;;;;;;4238271;33;20080;-72
2023/05/23 08:06:50;;;;;;;3.62;2.00;;;;;;;;;;4249941;33;20090;-72
2023/05/23 08:09:17;;;;;;;6.47;2.25;;;;;;;;;;4277275;33;20045;-71
2023/05/23 08:11:50;;;;;;;5.15;1.80;;;;;;;;;;4281651;33;20049;-71
2023/05/23 08:14:16;;;;;;;5.75;2.55;;;;;;;;;;4282608;33;20041;-72
2023/05/23 08:16:43;;;;;;;3.40;2.67;;;;;;;;;;4282582;33;20050;-73
2023/05/23 08:19:10;;;;;;;5.87;2.30;;;;;;;;;;4284748;33;20478;-71
2023/05/23 08:21:37;;;;;;;6.68;1.90;;;;;;;;;;4282524;33;20579;-70
2023/05/23 08:24:11;;;;;;;6.45;2.05;;;;;;;;;;4281766;33;20038;-72
2023/05/23 08:26:39;;;;;;;3.83;1.77;;;;;;;;;;4283187;33;20038;-72
2023/05/23 08:29:05;;;;;;;2.30;1.80;;;;;;;;;;4282953;33;20054;-71
2023/05/23 08:31:32;;;;;;;2.95;2.03;;;;;;;;;;4282997;33;20469;-73
2023/05/23 08:33:58;;;;;;;2.22;1.70;;;;;;;;;;4280842;33;20063;-71
2023/05/23 08:36:24;;;;;;;3.15;1.77;;;;;;;;;;4282913;33;20095;-72
2023/05/23 08:38:51;;;;;;;8.48;1.98;;;;;;;;;;4282825;33;20088;-72
2023/05/23 08:41:19;;;;;;;3.00;1.83;;;;;;;;;;4281583;33;20055;-72
2023/05/23 08:43:46;;;;;;;2.03;1.60;;;;;;;;;;4282131;33;20705;-70
2023/05/23 08:46:13;;;;;;;3.00;1.98;;;;;;;;;;4281856;33;20049;-72
2023/05/23 08:48:41;;;;;;;3.62;2.53;;;;;;;;;;4283126;33;20412;-72
2023/05/23 08:51:12;;;;;;;1.60;1.60;;;;;;;;;;4282458;33;20063;-73
2023/05/23 08:53:40;;;;;;;7.75;2.00;;;;;;;;;;4281698;33;20087;-70
2023/05/23 08:56:08;;;;;;;5.03;1.80;;;;;;;;;;4281654;33;20065;-71
2023/05/23 08:58:35;;;;;;;5.62;1.87;;;;;;;;;;4282565;33;20049;-72
2023/05/23 09:01:02;;;;;;;7.07;2.28;;;;;;;;;;4282200;33;20049;-72
2023/05/23 09:03:28;;;;;;;5.28;1.98;;;;;;;;;;4282526;33;20041;-72
2023/05/23 09:05:56;;;;;;;2.08;1.87;;;;;;;;;;4281140;33;20058;-71
2023/05/23 09:08:25;;;;;;;2.35;1.70;;;;;;;;;;4281920;33;20750;-72
2023/05/23 09:10:53;;;;;;;11.52;2.40;;;;;;;;;;4282825;33;20053;-73
2023/05/23 09:13:20;;;;;;;6.82;3.03;;;;;;;;;;4281495;33;20049;-73
2023/05/23 09:15:58;;;;;;;6.82;1.95;;;;;;;;;;4282700;33;20062;-71
2023/05/23 09:18:26;;;;;;;15.18;3.40;;;;;;;;;;4282264;33;20954;-72
2023/05/23 09:20:52;;;;;;;8.43;2.10;;;;;;;;;;4282487;33;20132;-72
2023/05/23 09:23:19;;;;;;;4.15;2.08;;;;;;;;;;4282055;33;20037;-72
2023/05/23 09:25:46;;;;;;;7.43;2.03;;;;;;;;;;4280918;33;20399;-72
2023/05/23 09:28:12;;;;;;;7.35;1.83;;;;;;;;;;4280213;33;20045;-71
2023/05/23 09:30:39;;;;;;;4.90;2.03;;;;;;;;;;4280920;33;20130;-73
2023/05/23 09:33:05;;;;;;;4.37;2.12;;;;;;;;;;4282369;33;20038;-72
2023/05/23 09:35:32;;;;;;;3.85;2.20;;;;;;;;;;4281218;33;20045;-71
2023/05/23 09:37:58;;;;;;;3.58;2.00;;;;;;;;;;4281964;33;20465;-71
2023/05/23 09:40:29;;;;;;;3.72;2.47;;;;;;;;;;4280411;33;20041;-68
2023/05/23 09:43:01;;;;;;;7.03;2.45;;;;;;;;;;4282000;33;20085;-71
2023/05/23 09:45:31;;;;;;;3.95;1.85;;;;;;;;;;4281040;33;20064;-70
2023/05/23 09:47:57;;;;;;;8.40;1.70;;;;;;;;;;4282573;33;20411;-72
2023/05/23 09:50:29;;;;;;;4.37;2.90;;;;;;;;;;4280955;33;20053;-72
2023/05/23 09:52:56;;;;;;;4.87;2.05;;;;;;;;;;4282331;33;20410;-73
2023/05/23 09:55:22;;;;;;;7.22;2.62;;;;;;;;;;4282040;33;20075;-71
2023/05/23 09:57:51;;;;;;;3.37;1.83;;;;;;;;;;4282215;33;20046;-72
2023/05/23 10:00:19;;;;;;;2.45;2.00;;;;;;;;;;4282026;33;20065;-71
2023/05/23 10:03:07;;;;;;;10.20;2.45;;;;;;;;;;4280487;33;20058;-70
2023/05/23 10:05:46;;;;;;;2.37;2.17;;;;;;;;;;4281921;33;20075;-71
2023/05/23 10:08:21;;;;;;;6.15;2.17;;;;;;;;;;4278356;33;20042;-69
2023/05/23 10:11:07;;;;;;;4.75;2.22;;;;;;;;;;4279952;33;20053;-75
2023/05/23 10:13:34;;;;;;;3.45;2.70;;;;;;;;;;4260158;33;20041;-72
2023/05/23 10:16:05;;;;;;;4.32;2.65;;;;;;;;;;4276998;33;20507;-71
2023/05/23 10:18:36;;;;;;;4.82;2.20;;;;;;;;;;4279246;33;20216;-72
2023/05/23 10:21:05;;;;;;;8.10;2.40;;;;;;;;;;4278080;33;20067;-72
2023/05/23 10:23:32;;;;;;;3.30;2.20;;;;;;;;;;4279202;33;20487;-72
2023/05/23 10:25:58;;;;;;;5.53;2.10;;;;;;;;;;4277378;33;20038;-74
2023/05/23 10:28:26;;;;;;;5.82;2.53;;;;;;;;;;4279128;33;20053;-73
2023/05/23 10:30:52;;;;;;;3.00;2.53;;;;;;;;;;4278788;33;20059;-72
2023/05/23 10:33:18;;;;;;;5.25;2.35;;;;;;;;;;4278838;33;20113;-72
2023/05/23 10:35:45;;;;;;;10.70;2.78;;;;;;;;;;4279052;33;20076;-72
2023/05/23 10:38:14;;;;;;;11.10;2.60;;;;;;;;;;4276526;33;20059;-71
2023/05/23 10:41:03;;;;;;;7.30;2.50;;;;;;;;;;4281377;33;20075;-72
2023/05/23 10:43:35;;;;;;;5.18;2.30;;;;;;;;;;4276641;33;20053;-72
2023/05/23 10:46:01;;;;;;;;;;;;;;;;;;4280180;33;20369;-72
2023/05/23 10:48:27;;;;;;;6.50;2.58;;;;;;;;;;4281319;33;20351;-72
2023/05/23 10:51:17;;;;;;;14.32;2.47;;;;;;;;;;4281394;33;20063;-75
2023/05/23 10:53:44;;;;;;;10.50;3.08;;;;;;;;;;4272570;33;20432;-75
2023/05/23 10:56:22;;;;;;;15.88;2.15;;;;;;;;;;4278662;33;20049;-74
2023/05/23 10:58:54;;;;;;;4.28;3.05;;;;;;;;;;4278761;33;20034;-73
2023/05/23 11:01:22;;;;;;;2.45;2.25;;;;;;;;;;4489761;28;20113;-73
2023/05/23 11:03:50;;;;;;;2.40;2.20;;;;;;;;;;4301574;33;20032;-76
2023/05/23 11:06:37;;;;;;;5.70;2.25;;;;;;;;;;4299564;33;20104;-75
2023/05/23 11:09:10;;;;;;;5.93;2.33;;;;;;;;;;4289699;33;20395;-74
2023/05/23 11:11:58;;;;;;;4.10;2.45;;;;;;;;;;4293377;33;20119;-74
2023/05/23 11:14:50;;;;;;;6.05;2.50;;;;;;;;;;4290502;33;20119;-73
2023/05/23 11:17:17;;;;;;;3.78;3.30;;;;;;;;;;4292673;33;20180;-73
2023/05/23 11:20:06;;;;;;;2.53;2.33;;;;;;;;;;4291153;33;20099;-73
2023/05/23 11:22:33;;;;;;;11.75;2.92;;;;;;;;;;4291753;33;20049;-73
2023/05/23 11:25:00;;;;;;;5.05;2.30;;;;;;;;;;4293040;33;20038;-72
2023/05/23 11:27:28;;;;;;;4.87;2.42;;;;;;;;;;4289109;33;20471;-73
2023/05/23 11:29:57;;;;;;;4.80;3.12;;;;;;;;;;4284723;33;20038;-70
2023/05/23 11:32:26;;;;;;;3.17;2.45;;;;;;;;;;4285257;33;20142;-73
2023/05/23 11:34:52;;;;;;;2.67;2.35;;;;;;;;;;4285239;33;20041;-72
2023/05/23 11:37:19;;;;;;;10.15;3.03;;;;;;;;;;4285781;33;20532;-72
2023/05/23 11:39:45;;;;;;;6.53;2.28;;;;;;;;;;4286376;33;20089;-73
2023/05/23 11:42:12;;;;;;;7.07;3.15;;;;;;;;;;4286326;33;20076;-71
2023/05/23 11:44:38;;;;;;;3.67;2.47;;;;;;;;;;4288610;33;20049;-72
2023/05/23 11:47:05;;;;;;;9.65;2.90;;;;;;;;;;4288930;33;20071;-72
2023/05/23 11:49:33;;;;;;;5.15;2.50;;;;;;;;;;4286997;33;20087;-72
2023/05/23 11:52:00;;;;;;;3.33;3.00;;;;;;;;;;4288021;33;20067;-71
2023/05/23 11:54:27;;;;;;;4.35;2.40;;;;;;;;;;4289716;33;20926;-73
2023/05/23 11:56:54;;;;;;;4.87;3.10;;;;;;;;;;4290942;33;20041;-73
2023/05/23 11:59:20;;;;;;;8.63;3.85;;;;;;;;;;4290783;33;20038;-72
2023/05/23 12:01:47;;;;;;;12.37;3.35;;;;;;;;;;4294048;33;20072;-72
2023/05/23 12:04:20;;;;;;;4.53;2.47;;;;;;;;;;4303042;33;20435;-73
2023/05/23 12:06:47;;;;;;;5.40;2.40;;;;;;;;;;4305350;33;20049;-72
2023/05/23 12:09:14;;;;;;;4.65;2.67;;;;;;;;;;4287568;33;20037;-72
2023/05/23 12:11:41;;;;;;;6.87;2.70;;;;;;;;;;4286374;33;20121;-72
2023/05/23 12:14:08;;;;;;;4.82;2.53;;;;;;;;;;4283257;33;20610;-72
2023/05/23 12:16:35;;;;;;;3.50;2.40;;;;;;;;;;4288617;33;20100;-73
2023/05/23 12:19:02;;;;;;;3.47;2.70;;;;;;;;;;4288328;33;20022;-73
2023/05/23 12:21:44;;;;;;;9.80;2.58;;;;;;;;;;4288225;33;20872;-73
2023/05/23 12:24:15;;;;;;;7.90;3.03;;;;;;;;;;4286265;33;20038;-73
2023/05/23 12:26:52;;;;;;;5.35;2.92;;;;;;;;;;4288609;33;20496;-72
2023/05/23 12:29:19;;;;;;;3.92;2.75;;;;;;;;;;4288192;33;20106;-72
2023/05/23 12:31:50;;;;;;;6.55;2.60;;;;;;;;;;4286425;33;20059;-73
2023/05/23 12:34:16;;;;;;;8.48;3.08;;;;;;;;;;4286275;33;20103;-72
2023/05/23 12:36:44;;;;;;;4.12;2.40;;;;;;;;;;4281015;33;20049;-73
2023/05/23 12:39:10;;;;;;;3.30;3.08;;;;;;;;;;4272195;33;20041;-72
2023/05/23 12:41:36;;;;;;;11.85;2.80;;;;;;;;;;4294552;33;20044;-72
2023/05/23 12:44:03;;;;;;;11.38;3.58;;;;;;;;;;4293703;33;20038;-73
2023/05/23 12:46:29;;;;;;;5.30;3.87;;;;;;;;;;4295448;33;20853;-72
2023/05/23 12:48:56;;;;;;;12.77;4.43;;;;;;;;;;4293315;33;20092;-72
2023/05/23 12:51:22;;;;;;;8.82;3.00;;;;;;;;;;4294565;33;20066;-73
2023/05/23 12:53:48;;;;;;;5.78;2.70;;;;;;;;;;4250006;33;20103;-71
2023/05/23 12:56:15;;;;;;;5.87;3.40;;;;;;;;;;4252301;33;20305;-72
2023/05/23 12:58:41;;;;;;;3.83;2.70;;;;;;;;;;4252782;33;20030;-72
2023/05/23 13:01:08;;;;;;;10.07;3.08;;;;;;;;;;4251771;33;20086;-72
2023/05/23 13:03:34;;;;;;;13.85;3.08;;;;;;;;;;4251935;33;20038;-72
2023/05/23 13:06:01;;;;;;;4.53;3.00;;;;;;;;;;4251610;33;20050;-71
2023/05/23 13:08:28;;;;;;;3.25;2.97;;;;;;;;;;4263304;33;20034;-72
2023/05/23 13:10:54;;;;;;;9.48;3.90;;;;;;;;;;4266290;33;20341;-72
2023/05/23 13:13:21;;;;;;;8.80;3.50;;;;;;;;;;4264943;33;20030;-72
2023/05/23 13:15:47;;;;;;;4.20;3.60;;;;;;;;;;4264544;33;20287;-72
2023/05/23 13:18:13;;;;;;;6.10;3.12;;;;;;;;;;4265185;33;20037;-72
2023/05/23 13:20:41;;;;;;;5.75;3.20;;;;;;;;;;4265656;33;20050;-73
2023/05/23 13:23:08;;;;;;;14.10;2.92;;;;;;;;;;4268060;33;20562;-72
2023/05/23 13:25:34;;;;;;;3.42;3.15;;;;;;;;;;4290424;33;20363;-72
2023/05/23 13:28:01;;;;;;;9.10;6.62;;;;;;;;;;4295121;33;20063;-70
2023/05/23 13:30:27;;;;;;;5.10;3.25;;;;;;;;;;4294148;33;20057;-72
2023/05/23 13:32:54;;;;;;;4.57;3.72;;;;;;;;;;4295473;33;20092;-71
2023/05/23 13:35:20;;;;;;;3.92;3.42;;;;;;;;;;4295363;33;20049;-72
2023/05/23 13:37:46;;;;;;;17.23;3.70;;;;;;;;;;4295513;33;20130;-71
2023/05/23 13:40:19;;;;;;;7.82;3.25;;;;;;;;;;4293788;33;20050;-71
2023/05/23 13:42:46;;;;;;;12.50;3.50;;;;;;;;;;4294882;33;20370;-72
2023/05/23 13:45:13;;;;;;;10.63;3.50;;;;;;;;;;4293881;33;20049;-72
2023/05/23 13:47:40;;;;;;;4.78;3.35;;;;;;;;;;4294493;33;20041;-73
2023/05/23 13:50:07;;;;;;;7.40;3.20;;;;;;;;;;4300499;33;20466;-71
2023/05/23 13:52:33;;;;;;;4.65;3.87;;;;;;;;;;4303022;33;20443;-74
2023/05/23 13:55:00;;;;;;;11.55;3.70;;;;;;;;;;4302806;33;20069;-73
2023/05/23 13:57:26;;;;;;;10.02;3.50;;;;;;;;;;4304499;33;20133;-73
2023/05/23 13:59:53;;;;;;;4.62;3.55;;;;;;;;;;4302614;33;20050;-73
2023/05/23 14:02:20;;;;;;;7.60;4.37;;;;;;;;;;4270414;33;20102;-73
2023/05/23 14:04:49;;;;;;;8.80;2.92;;;;;;;;;;4258228;33;20055;-73
2023/05/23 14:07:16;;;;;;;7.18;3.83;;;;;;;;;;4264768;33;20033;-72
2023/05/23 14:09:43;;;;;;;11.90;2.95;;;;;;;;;;4242873;33;20055;-72
2023/05/23 14:12:10;;;;;;;10.60;4.03;;;;;;;;;;4242139;33;20056;-72
2023/05/23 14:14:36;;;;;;;4.30;3.25;;;;;;;;;;4242962;33;20082;-73
2023/05/23 14:17:02;;;;;;;4.50;3.55;;;;;;;;;;4243566;33;20364;-73
2023/05/23 14:19:29;;;;;;;9.25;3.65;;;;;;;;;;4242407;33;20111;-73
2023/05/23 14:21:55;;;;;;;6.70;3.50;;;;;;;;;;4256558;33;20062;-73
2023/05/23 14:24:21;;;;;;;5.60;3.50;;;;;;;;;;4255791;33;20061;-71
2023/05/23 14:26:48;;;;;;;3.62;2.92;;;;;;;;;;4256676;33;20425;-74
2023/05/23 14:29:15;;;;;;;4.00;3.65;;;;;;;;;;4257694;33;20064;-74
2023/05/23 14:31:41;;;;;;;4.68;3.10;;;;;;;;;;4257832;33;20064;-73
2023/05/23 14:34:08;;;;;;;9.25;3.85;;;;;;;;;;4277466;33;20106;-69
2023/05/23 14:36:35;;;;;;;4.50;3.42;;;;;;;;;;4285786;33;20045;-72
2023/05/23 14:39:04;;;;;;;6.25;4.50;;;;;;;;;;4286842;33;20053;-72
2023/05/23 14:41:30;;;;;;;7.62;3.85;;;;;;;;;;4285308;33;20046;-73
2023/05/23 14:43:57;;;;;;;3.42;2.80;;;;;;;;;;4284132;33;20071;-70
2023/05/23 14:46:23;;;;;;;11.82;3.45;;;;;;;;;;4281921;33;20095;-72
2023/05/23 14:48:49;;;;;;;13.88;6.12;;;;;;;;;;4278538;33;20228;-72
2023/05/23 14:51:15;;;;;;;6.70;3.10;;;;;;;;;;4278388;33;20392;-72
2023/05/23 14:53:43;;;;;;;7.72;2.92;;;;;;;;;;4297390;33;20075;-71
2023/05/23 14:56:11;;;;;;;5.35;3.42;;;;;;;;;;4287505;33;20056;-72
2023/05/23 14:58:40;;;;;;;11.77;3.35;;;;;;;;;;4300418;33;20458;-72
2023/05/23 15:01:06;;;;;;;5.97;4.25;;;;;;;;;;4303260;33;20049;-72
2023/05/23 15:03:33;;;;;;;6.03;3.08;;;;;;;;;;4302937;33;20048;-72
2023/05/23 15:05:59;;;;;;;17.85;3.62;;;;;;;;;;4302126;33;20130;-73
2023/05/23 15:08:26;;;;;;;3.42;3.12;;;;;;;;;;4302177;33;20425;-70
2023/05/23 15:10:52;;;;;;;9.15;3.12;;;;;;;;;;4302559;33;20037;-72
2023/05/23 15:13:19;;;;;;;5.80;3.42;;;;;;;;;;4302553;33;20075;-73
2023/05/23 15:15:45;;;;;;;6.47;3.72;;;;;;;;;;4303420;33;20048;-73
2023/05/23 15:18:12;;;;;;;11.07;3.60;;;;;;;;;;4301324;33;20071;-72
2023/05/23 15:20:38;;;;;;;8.27;3.15;;;;;;;;;;4300350;33;20096;-71
2023/05/23 15:23:05;;;;;;;8.23;2.97;;;;;;;;;;4293777;33;20050;-71
2023/05/23 15:25:31;;;;;;;8.85;3.60;;;;;;;;;;4299807;33;20032;-73
2023/05/23 15:27:57;;;;;;;3.40;3.10;;;;;;;;;;4298153;33;20123;-72
2023/05/23 15:30:23;;;;;;;6.00;3.10;;;;;;;;;;4296489;33;20083;-72
2023/05/23 15:32:50;;;;;;;8.55;2.90;;;;;;;;;;4299348;33;20049;-70
2023/05/23 15:35:16;;;;;;;17.37;3.08;;;;;;;;;;4285840;33;20030;-74
2023/05/23 15:37:43;;;;;;;6.97;3.17;;;;;;;;;;4289074;33;20057;-70
2023/05/23 15:40:10;;;;;;;11.10;2.87;;;;;;;;;;4287984;33;20582;-71
2023/05/23 15:42:37;;;;;;;5.68;3.20;;;;;;;;;;4285680;33;20046;-73
2023/05/23 15:45:03;;;;;;;3.37;2.78;;;;;;;;;;4288444;33;20044;-70
2023/05/23 15:47:30;;;;;;;6.45;3.15;;;;;;;;;;4286066;33;20438;-72
2023/05/23 15:49:56;;;;;;;6.75;3.97;;;;;;;;;;4288164;33;20038;-73
2023/05/23 15:52:22;;;;;;;9.23;3.08;;;;;;;;;;4289201;33;20061;-72
2023/05/23 15:54:48;;;;;;;4.00;2.87;;;;;;;;;;4287422;33;20055;-73
2023/05/23 15:57:14;;;;;;;4.53;2.58;;;;;;;;;;4282989;33;20053;-70
2023/05/23 15:59:40;;;;;;;6.25;3.75;;;;;;;;;;4287018;33;20524;-73
2023/05/23 16:02:08;;;;;;;4.35;3.95;;;;;;;;;;4282104;33;20082;-71
2023/05/23 16:04:35;;;;;;;5.22;3.20;;;;;;;;;;4271774;33;20444;-72
2023/05/23 16:07:01;;;;;;;3.35;2.85;;;;;;;;;;4286683;33;20092;-73
2023/05/23 16:09:28;;;;;;;4.57;3.20;;;;;;;;;;4286644;33;20045;-73
2023/05/23 16:11:55;;;;;;;3.28;2.92;;;;;;;;;;4286663;33;20083;-73
2023/05/23 16:14:21;;;;;;;12.30;3.45;;;;;;;;;;4287804;33;20036;-73
2023/05/23 16:16:48;;;;;;;8.85;3.40;;;;;;;;;;4285718;33;20088;-73
2023/05/23 16:19:14;;;;;;;5.85;3.12;;;;;;;;;;4287263;33;20037;-73
2023/05/23 16:21:41;;;;;;;8.10;2.97;;;;;;;;;;4282214;33;20561;-72
2023/05/23 16:24:07;;;;;;;4.07;2.58;;;;;;;;;;4287493;33;20260;-73
2023/05/23 16:26:33;;;;;;;3.10;2.78;;;;;;;;;;4283993;33;20075;-73
2023/05/23 16:28:59;;;;;;;3.92;2.85;;;;;;;;;;4283454;33;20050;-72
2023/05/23 16:31:26;;;;;;;4.47;2.70;;;;;;;;;;4277389;33;20449;-73
2023/05/23 16:33:53;;;;;;;10.38;2.80;;;;;;;;;;4278287;33;20057;-71
2023/05/23 16:36:19;;;;;;;4.95;2.60;;;;;;;;;;4263523;33;20376;-72
2023/05/23 16:38:45;;;;;;;9.63;2.92;;;;;;;;;;4262004;33;20050;-73
2023/05/23 16:41:12;;;;;;;5.18;2.80;;;;;;;;;;4259384;33;21070;-73
2023/05/23 16:43:38;;;;;;;6.25;3.10;;;;;;;;;;4267958;33;20089;-73